sensor_id;sensor_type;location;lat;lon;timestamp;temperature;humidity
43987;DHT22;29650;47.378;8.300;2022-07-29T00:00:15;20.10;99.90
43987;DHT22;29650;47.378;8.300;2022-07-29T00:02:43;20.40;99.90
43987;DHT22;29650;47.378;8.300;2022-07-29T00:05:10;20.30;99.90
43987;DHT22;29650;47.378;8.300;2022-07-29T00:07:39;20.20;99.90
43987;DHT22;29650;47.378;8.300;2022-07-29T00:10:06;20.30;99.90
43987;DHT22;29650;47.378;8.300;2022-07-29T00:12:33;20.30;99.90
43987;DHT22;29650;47.378;8.300;2022-07-29T00:15:00;20.30;99.90
43987;DHT22;29650;47.378;8.300;2022-07-29T00:17:28;20.20;99.90
43987;DHT22;29650;47.378;8.300;2022-07-29T00:19:55;20.20;99.90
43987;DHT22;29650;47.378;8.300;2022-07-29T00:22:22;20.20;99.90
43987;DHT22;29650;47.378;8.300;2022-07-29T00:24:49;20.30;99.90
43987;DHT22;29650;47.378;8.300;2022-07-29T00:27:17;20.30;99.90
43987;DHT22;29650;47.378;8.300;2022-07-29T00:29:44;20.30;99.90
43987;DHT22;29650;47.378;8.300;2022-07-29T00:32:11;20.30;99.90
43987;DHT22;29650;47.378;8.300;2022-07-29T00:34:39;20.40;99.90
43987;DHT22;29650;47.378;8.300;2022-07-29T00:37:24;20.20;99.90
43987;DHT22;29650;47.378;8.300;2022-07-29T00:39:51;20.20;99.90
43987;DHT22;29650;47.378;8.300;2022-07-29T00:42:18;20.30;99.90
43987;DHT22;29650;47.378;8.300;2022-07-29T00:44:45;20.20;99.90
43987;DHT22;29650;47.378;8.300;2022-07-29T00:47:12;20.30;99.90
43987;DHT22;29650;47.378;8.300;2022-07-29T00:49:41;20.10;99.90
43987;DHT22;29650;47.378;8.300;2022-07-29T00:52:10;20.00;99.90
43987;DHT22;29650;47.378;8.300;2022-07-29T00:54:39;20.00;99.90
43987;DHT22;29650;47.378;8.300;2022-07-29T00:57:07;19.90;99.90
43987;DHT22;29650;47.378;8.300;2022-07-29T00:59:34;19.90;99.90
43987;DHT22;29650;47.378;8.300;2022-07-29T01:02:01;20.00;99.90
43987;DHT22;29650;47.378;8.300;2022-07-29T01:04:28;20.00;99.90
43987;DHT22;29650;47.378;8.300;2022-07-29T01:06:58;20.00;99.90
43987;DHT22;29650;47.378;8.300;2022-07-29T01:09:26;20.00;99.90
43987;DHT22;29650;47.378;8.300;2022-07-29T01:11:54;20.00;99.90
43987;DHT22;29650;47.378;8.300;2022-07-29T01:14:21;20.00;99.90
43987;DHT22;29650;47.378;8.300;2022-07-29T01:16:54;20.10;99.90
43987;DHT22;29650;47.378;8.300;2022-07-29T01:19:46;20.00;99.90
43987;DHT22;29650;47.378;8.300;2022-07-29T01:22:26;20.20;99.90
43987;DHT22;29650;47.378;8.300;2022-07-29T01:25:12;20.20;99.90
43987;DHT22;29650;47.378;8.300;2022-07-29T01:27:51;20.20;99.90
43987;DHT22;29650;47.378;8.300;2022-07-29T01:30:27;20.30;99.90
43987;DHT22;29650;47.378;8.300;2022-07-29T01:32:59;20.30;99.90
43987;DHT22;29650;47.378;8.300;2022-07-29T01:35:31;20.30;99.90
43987;DHT22;29650;47.378;8.300;2022-07-29T01:38:04;19.90;99.90
43987;DHT22;29650;47.378;8.300;2022-07-29T01:40:36;19.70;99.90
43987;DHT22;29650;47.378;8.300;2022-07-29T01:43:10;19.60;99.90
43987;DHT22;29650;47.378;8.300;2022-07-29T01:45:41;19.60;99.90
43987;DHT22;29650;47.378;8.300;2022-07-29T01:48:13;19.60;99.90
43987;DHT22;29650;47.378;8.300;2022-07-29T01:50:47;19.70;99.90
43987;DHT22;29650;47.378;8.300;2022-07-29T01:53:21;19.80;99.90
43987;DHT22;29650;47.378;8.300;2022-07-29T01:55:50;19.70;99.90
43987;DHT22;29650;47.378;8.300;2022-07-29T01:58:19;19.70;99.90
43987;DHT22;29650;47.378;8.300;2022-07-29T02:00:49;19.60;99.90
43987;DHT22;29650;47.378;8.300;2022-07-29T02:03:17;19.40;99.90
43987;DHT22;29650;47.378;8.300;2022-07-29T02:05:46;19.50;99.90
43987;DHT22;29650;47.378;8.300;2022-07-29T02:08:15;19.50;99.90
43987;DHT22;29650;47.378;8.300;2022-07-29T02:10:43;19.70;99.90
43987;DHT22;29650;47.378;8.300;2022-07-29T02:13:12;19.80;99.90
43987;DHT22;29650;47.378;8.300;2022-07-29T02:15:41;19.80;99.90
43987;DHT22;29650;47.378;8.300;2022-07-29T02:18:14;20.00;99.90
43987;DHT22;29650;47.378;8.300;2022-07-29T02:20:45;20.00;99.90
43987;DHT22;29650;47.378;8.300;2022-07-29T02:23:15;19.90;99.90
43987;DHT22;29650;47.378;8.300;2022-07-29T02:25:44;19.90;99.90
43987;DHT22;29650;47.378;8.300;2022-07-29T02:28:12;19.90;99.90
43987;DHT22;29650;47.378;8.300;2022-07-29T02:30:41;19.70;99.90
43987;DHT22;29650;47.378;8.300;2022-07-29T02:33:13;19.60;99.90
43987;DHT22;29650;47.378;8.300;2022-07-29T02:35:41;19.60;99.90
43987;DHT22;29650;47.378;8.300;2022-07-29T02:38:13;19.60;99.90
43987;DHT22;29650;47.378;8.300;2022-07-29T02:40:59;19.70;99.90
43987;DHT22;29650;47.378;8.300;2022-07-29T02:43:28;19.70;99.90
43987;DHT22;29650;47.378;8.300;2022-07-29T02:45:58;19.70;99.90
43987;DHT22;29650;47.378;8.300;2022-07-29T02:48:34;19.60;99.90
43987;DHT22;29650;47.378;8.300;2022-07-29T02:51:07;19.70;99.90
43987;DHT22;29650;47.378;8.300;2022-07-29T02:53:36;19.60;99.90
43987;DHT22;29650;47.378;8.300;2022-07-29T02:56:08;19.60;99.90
43987;DHT22;29650;47.378;8.300;2022-07-29T02:58:40;19.70;99.90
43987;DHT22;29650;47.378;8.300;2022-07-29T03:01:11;19.90;99.90
43987;DHT22;29650;47.378;8.300;2022-07-29T03:03:43;19.90;99.90
43987;DHT22;29650;47.378;8.300;2022-07-29T03:06:12;19.90;99.90
43987;DHT22;29650;47.378;8.300;2022-07-29T03:08:40;20.00;99.90
43987;DHT22;29650;47.378;8.300;2022-07-29T03:11:09;20.10;99.90
43987;DHT22;29650;47.378;8.300;2022-07-29T03:13:36;20.10;99.90
43987;DHT22;29650;47.378;8.300;2022-07-29T03:16:04;19.90;99.90
43987;DHT22;29650;47.378;8.300;2022-07-29T03:18:32;19.60;99.90
43987;DHT22;29650;47.378;8.300;2022-07-29T03:21:00;19.80;99.90
43987;DHT22;29650;47.378;8.300;2022-07-29T03:23:27;19.90;99.90
43987;DHT22;29650;47.378;8.300;2022-07-29T03:25:54;20.00;99.90
43987;DHT22;29650;47.378;8.300;2022-07-29T03:28:21;19.90;99.90
43987;DHT22;29650;47.378;8.300;2022-07-29T03:30:49;19.80;99.90
43987;DHT22;29650;47.378;8.300;2022-07-29T03:33:16;19.60;99.90
43987;DHT22;29650;47.378;8.300;2022-07-29T03:35:43;19.60;99.90
43987;DHT22;29650;47.378;8.300;2022-07-29T03:38:11;19.40;99.90
43987;DHT22;29650;47.378;8.300;2022-07-29T03:40:42;19.40;99.90
43987;DHT22;29650;47.378;8.300;2022-07-29T03:43:11;19.50;99.90
43987;DHT22;29650;47.378;8.300;2022-07-29T03:45:41;19.60;99.90
43987;DHT22;29650;47.378;8.300;2022-07-29T03:48:12;19.50;99.90
43987;DHT22;29650;47.378;8.300;2022-07-29T03:50:40;19.50;99.90
43987;DHT22;29650;47.378;8.300;2022-07-29T03:53:07;19.60;99.90
43987;DHT22;29650;47.378;8.300;2022-07-29T03:55:41;19.80;99.90
43987;DHT22;29650;47.378;8.300;2022-07-29T03:58:08;19.80;99.90
43987;DHT22;29650;47.378;8.300;2022-07-29T04:00:37;19.90;99.90
43987;DHT22;29650;47.378;8.300;2022-07-29T04:03:05;19.80;99.90
43987;DHT22;29650;47.378;8.300;2022-07-29T04:05:32;19.80;99.90
43987;DHT22;29650;47.378;8.300;2022-07-29T04:07:59;19.80;99.90
43987;DHT22;29650;47.378;8.300;2022-07-29T04:10:26;19.70;99.90
43987;DHT22;29650;47.378;8.300;2022-07-29T04:12:55;19.70;99.90
43987;DHT22;29650;47.378;8.300;2022-07-29T04:15:22;19.70;99.90
43987;DHT22;29650;47.378;8.300;2022-07-29T04:17:48;19.70;99.90
43987;DHT22;29650;47.378;8.300;2022-07-29T04:20:15;19.60;99.90
43987;DHT22;29650;47.378;8.300;2022-07-29T04:22:42;19.60;99.90
43987;DHT22;29650;47.378;8.300;2022-07-29T04:25:09;19.60;99.90
43987;DHT22;29650;47.378;8.300;2022-07-29T04:27:36;19.60;99.90
43987;DHT22;29650;47.378;8.300;2022-07-29T04:30:25;19.70;99.90
43987;DHT22;29650;47.378;8.300;2022-07-29T04:32:51;19.60;99.90
43987;DHT22;29650;47.378;8.300;2022-07-29T04:35:19;19.70;99.90
43987;DHT22;29650;47.378;8.300;2022-07-29T04:37:46;19.80;99.90
43987;DHT22;29650;47.378;8.300;2022-07-29T04:40:13;19.80;99.90
43987;DHT22;29650;47.378;8.300;2022-07-29T04:42:40;19.70;99.90
43987;DHT22;29650;47.378;8.300;2022-07-29T04:45:07;19.60;99.90
43987;DHT22;29650;47.378;8.300;2022-07-29T04:47:35;19.30;99.90
43987;DHT22;29650;47.378;8.300;2022-07-29T04:50:03;19.00;99.90
43987;DHT22;29650;47.378;8.300;2022-07-29T04:52:30;19.00;99.90
43987;DHT22;29650;47.378;8.300;2022-07-29T04:54:57;19.10;99.90
43987;DHT22;29650;47.378;8.300;2022-07-29T04:57:25;19.30;99.90
43987;DHT22;29650;47.378;8.300;2022-07-29T04:59:52;19.50;99.90
43987;DHT22;29650;47.378;8.300;2022-07-29T05:02:19;19.50;99.90
43987;DHT22;29650;47.378;8.300;2022-07-29T05:04:49;19.60;99.90
43987;DHT22;29650;47.378;8.300;2022-07-29T05:07:15;19.70;99.90
43987;DHT22;29650;47.378;8.300;2022-07-29T05:09:42;19.70;99.90
43987;DHT22;29650;47.378;8.300;2022-07-29T05:12:09;19.70;99.90
43987;DHT22;29650;47.378;8.300;2022-07-29T05:14:37;19.70;99.90
43987;DHT22;29650;47.378;8.300;2022-07-29T05:17:04;19.80;99.90
43987;DHT22;29650;47.378;8.300;2022-07-29T05:19:31;19.90;99.90
43987;DHT22;29650;47.378;8.300;2022-07-29T05:21:59;19.80;99.90
43987;DHT22;29650;47.378;8.300;2022-07-29T05:24:26;19.80;99.90
43987;DHT22;29650;47.378;8.300;2022-07-29T05:26:53;20.00;99.90
43987;DHT22;29650;47.378;8.300;2022-07-29T05:29:20;20.10;99.90
43987;DHT22;29650;47.378;8.300;2022-07-29T05:31:47;20.20;99.90
43987;DHT22;29650;47.378;8.300;2022-07-29T05:34:14;20.40;99.90
43987;DHT22;29650;47.378;8.300;2022-07-29T05:36:41;20.50;99.90
43987;DHT22;29650;47.378;8.300;2022-07-29T05:39:09;20.60;99.90
43987;DHT22;29650;47.378;8.300;2022-07-29T05:41:36;20.30;99.90
43987;DHT22;29650;47.378;8.300;2022-07-29T05:44:03;20.50;99.90
43987;DHT22;29650;47.378;8.300;2022-07-29T05:46:30;20.50;99.90
43987;DHT22;29650;47.378;8.300;2022-07-29T05:48:57;20.50;99.90
43987;DHT22;29650;47.378;8.300;2022-07-29T05:51:24;20.60;99.90
43987;DHT22;29650;47.378;8.300;2022-07-29T05:53:51;20.40;99.90
43987;DHT22;29650;47.378;8.300;2022-07-29T05:56:19;20.40;99.90
43987;DHT22;29650;47.378;8.300;2022-07-29T05:58:46;20.50;99.90
43987;DHT22;29650;47.378;8.300;2022-07-29T06:01:13;20.60;99.90
43987;DHT22;29650;47.378;8.300;2022-07-29T06:03:40;20.60;99.90
43987;DHT22;29650;47.378;8.300;2022-07-29T06:06:08;20.70;99.90
43987;DHT22;29650;47.378;8.300;2022-07-29T06:08:35;20.60;99.90
43987;DHT22;29650;47.378;8.300;2022-07-29T06:11:03;20.70;99.90
43987;DHT22;29650;47.378;8.300;2022-07-29T06:13:31;20.80;99.90
43987;DHT22;29650;47.378;8.300;2022-07-29T06:15:59;20.80;99.90
43987;DHT22;29650;47.378;8.300;2022-07-29T06:18:26;20.80;99.90
43987;DHT22;29650;47.378;8.300;2022-07-29T06:20:53;20.60;99.90
43987;DHT22;29650;47.378;8.300;2022-07-29T06:23:20;20.60;99.90
43987;DHT22;29650;47.378;8.300;2022-07-29T06:25:47;20.60;99.90
43987;DHT22;29650;47.378;8.300;2022-07-29T06:28:14;20.60;99.90
43987;DHT22;29650;47.378;8.300;2022-07-29T06:30:42;20.70;99.90
43987;DHT22;29650;47.378;8.300;2022-07-29T06:33:09;20.70;99.90
43987;DHT22;29650;47.378;8.300;2022-07-29T06:35:42;20.70;99.90
43987;DHT22;29650;47.378;8.300;2022-07-29T06:38:10;20.50;99.90
43987;DHT22;29650;47.378;8.300;2022-07-29T06:40:41;20.60;99.90
43987;DHT22;29650;47.378;8.300;2022-07-29T06:43:25;20.60;99.90
43987;DHT22;29650;47.378;8.300;2022-07-29T06:45:54;20.50;99.90
43987;DHT22;29650;47.378;8.300;2022-07-29T06:48:20;20.30;99.90
43987;DHT22;29650;47.378;8.300;2022-07-29T06:50:47;20.30;99.90
43987;DHT22;29650;47.378;8.300;2022-07-29T06:53:14;20.40;99.90
43987;DHT22;29650;47.378;8.300;2022-07-29T06:55:41;20.30;99.90
43987;DHT22;29650;47.378;8.300;2022-07-29T06:58:08;20.30;99.90
43987;DHT22;29650;47.378;8.300;2022-07-29T07:00:36;20.40;99.90
43987;DHT22;29650;47.378;8.300;2022-07-29T07:03:04;20.40;99.90
43987;DHT22;29650;47.378;8.300;2022-07-29T07:05:31;20.30;99.90
43987;DHT22;29650;47.378;8.300;2022-07-29T07:07:58;20.40;99.90
43987;DHT22;29650;47.378;8.300;2022-07-29T07:10:25;20.30;99.90
43987;DHT22;29650;47.378;8.300;2022-07-29T07:12:52;20.30;99.90
43987;DHT22;29650;47.378;8.300;2022-07-29T07:15:19;20.40;99.90
43987;DHT22;29650;47.378;8.300;2022-07-29T07:17:47;20.40;99.90
43987;DHT22;29650;47.378;8.300;2022-07-29T07:20:16;20.30;99.90
43987;DHT22;29650;47.378;8.300;2022-07-29T07:22:43;20.40;99.90
43987;DHT22;29650;47.378;8.300;2022-07-29T07:25:11;20.50;99.90
43987;DHT22;29650;47.378;8.300;2022-07-29T07:27:38;20.60;99.90
43987;DHT22;29650;47.378;8.300;2022-07-29T07:30:06;20.60;99.90
43987;DHT22;29650;47.378;8.300;2022-07-29T07:32:34;20.60;99.90
43987;DHT22;29650;47.378;8.300;2022-07-29T07:35:02;20.60;99.90
43987;DHT22;29650;47.378;8.300;2022-07-29T07:37:30;20.70;99.90
43987;DHT22;29650;47.378;8.300;2022-07-29T07:39:57;20.70;99.90
43987;DHT22;29650;47.378;8.300;2022-07-29T07:42:24;20.70;99.90
43987;DHT22;29650;47.378;8.300;2022-07-29T07:44:51;20.70;99.90
43987;DHT22;29650;47.378;8.300;2022-07-29T07:47:18;20.70;99.90
43987;DHT22;29650;47.378;8.300;2022-07-29T07:49:46;20.60;99.90
43987;DHT22;29650;47.378;8.300;2022-07-29T07:52:13;20.70;99.90
43987;DHT22;29650;47.378;8.300;2022-07-29T07:54:42;20.60;99.90
43987;DHT22;29650;47.378;8.300;2022-07-29T07:57:10;20.70;99.90
43987;DHT22;29650;47.378;8.300;2022-07-29T07:59:37;20.60;99.90
43987;DHT22;29650;47.378;8.300;2022-07-29T08:02:04;20.60;99.90
43987;DHT22;29650;47.378;8.300;2022-07-29T08:04:32;20.60;99.90
43987;DHT22;29650;47.378;8.300;2022-07-29T08:06:59;20.60;99.90
43987;DHT22;29650;47.378;8.300;2022-07-29T08:09:27;20.60;99.90
43987;DHT22;29650;47.378;8.300;2022-07-29T08:11:56;20.60;99.90
43987;DHT22;29650;47.378;8.300;2022-07-29T08:14:23;20.60;99.90
43987;DHT22;29650;47.378;8.300;2022-07-29T08:16:50;20.60;99.90
43987;DHT22;29650;47.378;8.300;2022-07-29T08:19:17;20.50;99.90
43987;DHT22;29650;47.378;8.300;2022-07-29T08:21:44;20.50;99.90
43987;DHT22;29650;47.378;8.300;2022-07-29T08:24:11;20.30;99.90
43987;DHT22;29650;47.378;8.300;2022-07-29T08:26:56;20.60;99.90
43987;DHT22;29650;47.378;8.300;2022-07-29T08:29:23;20.70;99.90
43987;DHT22;29650;47.378;8.300;2022-07-29T08:31:50;20.70;99.90
43987;DHT22;29650;47.378;8.300;2022-07-29T08:34:17;20.20;99.90
43987;DHT22;29650;47.378;8.300;2022-07-29T08:36:44;20.50;99.90
43987;DHT22;29650;47.378;8.300;2022-07-29T08:39:11;20.30;99.90
43987;DHT22;29650;47.378;8.300;2022-07-29T08:41:38;20.50;99.90
43987;DHT22;29650;47.378;8.300;2022-07-29T08:44:06;20.80;99.90
43987;DHT22;29650;47.378;8.300;2022-07-29T08:46:33;21.00;99.90
43987;DHT22;29650;47.378;8.300;2022-07-29T08:49:03;21.20;99.90
43987;DHT22;29650;47.378;8.300;2022-07-29T08:51:31;21.60;99.90
43987;DHT22;29650;47.378;8.300;2022-07-29T08:54:01;21.90;99.90
43987;DHT22;29650;47.378;8.300;2022-07-29T08:56:28;22.00;99.90
43987;DHT22;29650;47.378;8.300;2022-07-29T08:58:58;22.20;99.90
43987;DHT22;29650;47.378;8.300;2022-07-29T09:01:29;22.30;99.90
43987;DHT22;29650;47.378;8.300;2022-07-29T09:03:57;22.50;99.90
43987;DHT22;29650;47.378;8.300;2022-07-29T09:06:31;22.50;99.90
43987;DHT22;29650;47.378;8.300;2022-07-29T09:08:59;22.30;99.90
43987;DHT22;29650;47.378;8.300;2022-07-29T09:11:26;22.40;99.90
43987;DHT22;29650;47.378;8.300;2022-07-29T09:13:53;22.50;99.90
43987;DHT22;29650;47.378;8.300;2022-07-29T09:16:20;22.40;99.90
43987;DHT22;29650;47.378;8.300;2022-07-29T09:18:49;22.30;99.90
43987;DHT22;29650;47.378;8.300;2022-07-29T09:21:17;22.30;99.90
43987;DHT22;29650;47.378;8.300;2022-07-29T09:24:06;22.20;99.90
43987;DHT22;29650;47.378;8.300;2022-07-29T09:26:35;22.30;99.90
43987;DHT22;29650;47.378;8.300;2022-07-29T09:29:08;22.40;99.90
43987;DHT22;29650;47.378;8.300;2022-07-29T09:31:38;22.20;99.90
43987;DHT22;29650;47.378;8.300;2022-07-29T09:34:07;22.40;99.90
43987;DHT22;29650;47.378;8.300;2022-07-29T09:36:41;22.60;99.90
43987;DHT22;29650;47.378;8.300;2022-07-29T09:39:09;22.70;99.90
43987;DHT22;29650;47.378;8.300;2022-07-29T09:41:46;23.10;99.90
43987;DHT22;29650;47.378;8.300;2022-07-29T09:44:14;23.10;99.90
43987;DHT22;29650;47.378;8.300;2022-07-29T09:46:53;23.10;99.90
43987;DHT22;29650;47.378;8.300;2022-07-29T09:49:21;23.20;99.90
43987;DHT22;29650;47.378;8.300;2022-07-29T09:51:59;23.50;99.90
43987;DHT22;29650;47.378;8.300;2022-07-29T09:54:27;23.40;99.90
43987;DHT22;29650;47.378;8.300;2022-07-29T09:56:54;23.60;99.90
43987;DHT22;29650;47.378;8.300;2022-07-29T09:59:21;23.40;99.90
43987;DHT22;29650;47.378;8.300;2022-07-29T10:01:52;23.60;99.90
43987;DHT22;29650;47.378;8.300;2022-07-29T10:04:20;23.90;99.90
43987;DHT22;29650;47.378;8.300;2022-07-29T10:06:58;24.10;99.90
43987;DHT22;29650;47.378;8.300;2022-07-29T10:09:25;24.30;99.90
43987;DHT22;29650;47.378;8.300;2022-07-29T10:12:06;24.40;99.90
43987;DHT22;29650;47.378;8.300;2022-07-29T10:14:33;24.60;99.90
43987;DHT22;29650;47.378;8.300;2022-07-29T10:17:01;24.50;99.90
43987;DHT22;29650;47.378;8.300;2022-07-29T10:19:30;24.40;99.90
43987;DHT22;29650;47.378;8.300;2022-07-29T10:21:58;24.60;99.90
43987;DHT22;29650;47.378;8.300;2022-07-29T10:24:26;24.70;99.90
43987;DHT22;29650;47.378;8.300;2022-07-29T10:26:54;24.70;99.90
43987;DHT22;29650;47.378;8.300;2022-07-29T10:29:22;24.80;99.90
43987;DHT22;29650;47.378;8.300;2022-07-29T10:31:57;25.20;99.90
43987;DHT22;29650;47.378;8.300;2022-07-29T10:34:36;25.40;98.70
43987;DHT22;29650;47.378;8.300;2022-07-29T10:37:20;25.30;95.90
43987;DHT22;29650;47.378;8.300;2022-07-29T10:39:54;25.60;96.80
43987;DHT22;29650;47.378;8.300;2022-07-29T10:42:25;25.60;98.10
43987;DHT22;29650;47.378;8.300;2022-07-29T10:44:54;25.60;96.00
43987;DHT22;29650;47.378;8.300;2022-07-29T10:47:24;25.40;95.30
43987;DHT22;29650;47.378;8.300;2022-07-29T10:49:59;25.60;96.10
43987;DHT22;29650;47.378;8.300;2022-07-29T10:55:36;25.60;97.30
43987;DHT22;29650;47.378;8.300;2022-07-29T10:58:13;25.50;97.20
43987;DHT22;29650;47.378;8.300;2022-07-29T11:00:40;25.40;97.60
43987;DHT22;29650;47.378;8.300;2022-07-29T11:03:07;25.50;97.60
43987;DHT22;29650;47.378;8.300;2022-07-29T11:05:55;25.60;97.10
43987;DHT22;29650;47.378;8.300;2022-07-29T11:08:23;25.50;97.20
43987;DHT22;29650;47.378;8.300;2022-07-29T11:10:53;25.50;98.40
43987;DHT22;29650;47.378;8.300;2022-07-29T11:13:47;25.50;97.30
43987;DHT22;29650;47.378;8.300;2022-07-29T11:16:16;25.50;96.30
43987;DHT22;29650;47.378;8.300;2022-07-29T11:21:48;25.60;96.90
43987;DHT22;29650;47.378;8.300;2022-07-29T11:24:18;25.50;96.10
43987;DHT22;29650;47.378;8.300;2022-07-29T11:27:12;25.60;95.00
43987;DHT22;29650;47.378;8.300;2022-07-29T11:29:48;25.80;94.10
43987;DHT22;29650;47.378;8.300;2022-07-29T11:32:16;26.00;92.30
43987;DHT22;29650;47.378;8.300;2022-07-29T11:34:45;26.00;94.10
43987;DHT22;29650;47.378;8.300;2022-07-29T11:37:21;26.00;93.80
43987;DHT22;29650;47.378;8.300;2022-07-29T11:40:11;25.80;94.10
43987;DHT22;29650;47.378;8.300;2022-07-29T11:42:43;25.90;93.60
43987;DHT22;29650;47.378;8.300;2022-07-29T11:45:12;26.00;92.40
43987;DHT22;29650;47.378;8.300;2022-07-29T11:47:47;25.90;91.90
43987;DHT22;29650;47.378;8.300;2022-07-29T11:50:17;25.80;93.00
43987;DHT22;29650;47.378;8.300;2022-07-29T11:52:47;25.70;92.20
43987;DHT22;29650;47.378;8.300;2022-07-29T11:55:16;25.80;92.30
43987;DHT22;29650;47.378;8.300;2022-07-29T11:57:48;25.70;93.00
43987;DHT22;29650;47.378;8.300;2022-07-29T12:00:27;25.50;94.20
43987;DHT22;29650;47.378;8.300;2022-07-29T12:02:55;25.50;94.70
43987;DHT22;29650;47.378;8.300;2022-07-29T12:05:32;25.50;94.00
43987;DHT22;29650;47.378;8.300;2022-07-29T12:08:06;25.60;93.80
43987;DHT22;29650;47.378;8.300;2022-07-29T12:10:33;25.60;93.40
43987;DHT22;29650;47.378;8.300;2022-07-29T12:13:00;25.70;94.10
43987;DHT22;29650;47.378;8.300;2022-07-29T12:15:27;25.60;94.30
43987;DHT22;29650;47.378;8.300;2022-07-29T12:17:54;25.80;94.80
43987;DHT22;29650;47.378;8.300;2022-07-29T12:20:26;25.80;94.30
43987;DHT22;29650;47.378;8.300;2022-07-29T12:22:54;25.90;93.70
43987;DHT22;29650;47.378;8.300;2022-07-29T12:25:24;26.00;93.10
43987;DHT22;29650;47.378;8.300;2022-07-29T12:27:58;26.00;92.80
43987;DHT22;29650;47.378;8.300;2022-07-29T12:30:35;26.10;93.10
43987;DHT22;29650;47.378;8.300;2022-07-29T12:33:17;25.80;89.40
43987;DHT22;29650;47.378;8.300;2022-07-29T12:35:47;26.00;88.60
43987;DHT22;29650;47.378;8.300;2022-07-29T12:38:14;26.10;87.40
43987;DHT22;29650;47.378;8.300;2022-07-29T12:40:43;25.90;85.70
43987;DHT22;29650;47.378;8.300;2022-07-29T12:43:12;25.70;86.60
43987;DHT22;29650;47.378;8.300;2022-07-29T12:45:41;25.50;86.10
43987;DHT22;29650;47.378;8.300;2022-07-29T12:48:08;25.70;86.00
43987;DHT22;29650;47.378;8.300;2022-07-29T12:50:36;25.60;85.60
43987;DHT22;29650;47.378;8.300;2022-07-29T12:53:10;25.30;85.10
43987;DHT22;29650;47.378;8.300;2022-07-29T12:55:46;25.40;84.10
43987;DHT22;29650;47.378;8.300;2022-07-29T12:58:25;25.40;81.80
43987;DHT22;29650;47.378;8.300;2022-07-29T13:01:00;25.20;77.20
43987;DHT22;29650;47.378;8.300;2022-07-29T13:03:27;25.20;76.30
43987;DHT22;29650;47.378;8.300;2022-07-29T13:05:55;25.20;74.90
43987;DHT22;29650;47.378;8.300;2022-07-29T13:08:21;25.10;72.90
43987;DHT22;29650;47.378;8.300;2022-07-29T13:10:50;25.20;72.40
43987;DHT22;29650;47.378;8.300;2022-07-29T13:13:17;25.00;71.80
43987;DHT22;29650;47.378;8.300;2022-07-29T13:15:45;25.00;71.80
43987;DHT22;29650;47.378;8.300;2022-07-29T13:18:28;25.10;71.80
43987;DHT22;29650;47.378;8.300;2022-07-29T13:20:56;25.00;71.00
43987;DHT22;29650;47.378;8.300;2022-07-29T13:23:23;25.10;71.90
43987;DHT22;29650;47.378;8.300;2022-07-29T13:25:51;25.10;71.80
43987;DHT22;29650;47.378;8.300;2022-07-29T13:28:18;25.00;71.80
43987;DHT22;29650;47.378;8.300;2022-07-29T13:30:47;24.90;71.60
43987;DHT22;29650;47.378;8.300;2022-07-29T13:33:14;25.00;71.10
43987;DHT22;29650;47.378;8.300;2022-07-29T13:35:41;25.00;71.70
43987;DHT22;29650;47.378;8.300;2022-07-29T13:38:08;25.00;70.60
43987;DHT22;29650;47.378;8.300;2022-07-29T13:40:35;25.00;71.10
43987;DHT22;29650;47.378;8.300;2022-07-29T13:43:03;24.70;71.40
43987;DHT22;29650;47.378;8.300;2022-07-29T13:45:30;24.90;71.00
43987;DHT22;29650;47.378;8.300;2022-07-29T13:47:57;25.00;71.50
43987;DHT22;29650;47.378;8.300;2022-07-29T13:50:24;25.00;71.60
43987;DHT22;29650;47.378;8.300;2022-07-29T13:52:51;25.10;72.10
43987;DHT22;29650;47.378;8.300;2022-07-29T13:55:18;24.70;75.30
43987;DHT22;29650;47.378;8.300;2022-07-29T13:57:45;24.80;78.70
43987;DHT22;29650;47.378;8.300;2022-07-29T14:00:15;24.50;81.90
43987;DHT22;29650;47.378;8.300;2022-07-29T14:02:42;24.50;84.40
43987;DHT22;29650;47.378;8.300;2022-07-29T14:05:09;24.30;86.70
43987;DHT22;29650;47.378;8.300;2022-07-29T14:07:36;24.10;89.80
43987;DHT22;29650;47.378;8.300;2022-07-29T14:10:04;24.00;91.10
43987;DHT22;29650;47.378;8.300;2022-07-29T14:12:31;23.90;92.20
43987;DHT22;29650;47.378;8.300;2022-07-29T14:14:58;23.80;93.20
43987;DHT22;29650;47.378;8.300;2022-07-29T14:17:27;23.60;93.70
43987;DHT22;29650;47.378;8.300;2022-07-29T14:19:53;23.50;94.80
43987;DHT22;29650;47.378;8.300;2022-07-29T14:22:20;23.30;96.50
43987;DHT22;29650;47.378;8.300;2022-07-29T14:24:47;23.10;98.60
43987;DHT22;29650;47.378;8.300;2022-07-29T14:27:14;23.10;99.90
43987;DHT22;29650;47.378;8.300;2022-07-29T14:29:41;22.90;99.90
43987;DHT22;29650;47.378;8.300;2022-07-29T14:32:09;23.00;99.90
43987;DHT22;29650;47.378;8.300;2022-07-29T14:34:38;22.90;99.90
43987;DHT22;29650;47.378;8.300;2022-07-29T14:37:05;22.70;99.90
43987;DHT22;29650;47.378;8.300;2022-07-29T14:39:33;22.80;99.90
43987;DHT22;29650;47.378;8.300;2022-07-29T14:42:00;22.70;99.90
43987;DHT22;29650;47.378;8.300;2022-07-29T14:44:27;22.50;99.90
43987;DHT22;29650;47.378;8.300;2022-07-29T14:46:56;22.30;99.90
43987;DHT22;29650;47.378;8.300;2022-07-29T14:49:24;22.20;99.90
43987;DHT22;29650;47.378;8.300;2022-07-29T14:51:53;21.90;99.90
43987;DHT22;29650;47.378;8.300;2022-07-29T14:54:20;21.50;99.90
43987;DHT22;29650;47.378;8.300;2022-07-29T14:56:47;21.60;99.90
43987;DHT22;29650;47.378;8.300;2022-07-29T14:59:15;21.90;99.90
43987;DHT22;29650;47.378;8.300;2022-07-29T15:01:42;21.80;99.90
43987;DHT22;29650;47.378;8.300;2022-07-29T15:04:09;21.80;99.90
43987;DHT22;29650;47.378;8.300;2022-07-29T15:06:36;21.70;99.90
43987;DHT22;29650;47.378;8.300;2022-07-29T15:09:04;21.80;99.90
43987;DHT22;29650;47.378;8.300;2022-07-29T15:11:31;21.70;99.90
43987;DHT22;29650;47.378;8.300;2022-07-29T15:13:58;21.70;99.90
43987;DHT22;29650;47.378;8.300;2022-07-29T15:16:25;21.60;99.90
43987;DHT22;29650;47.378;8.300;2022-07-29T15:18:52;21.60;99.90
43987;DHT22;29650;47.378;8.300;2022-07-29T15:21:19;21.60;99.90
43987;DHT22;29650;47.378;8.300;2022-07-29T15:23:46;21.50;99.90
43987;DHT22;29650;47.378;8.300;2022-07-29T15:26:14;21.70;99.90
43987;DHT22;29650;47.378;8.300;2022-07-29T15:28:41;21.50;99.90
43987;DHT22;29650;47.378;8.300;2022-07-29T15:31:08;21.40;99.90
43987;DHT22;29650;47.378;8.300;2022-07-29T15:33:35;21.40;99.90
43987;DHT22;29650;47.378;8.300;2022-07-29T15:36:02;21.40;99.90
43987;DHT22;29650;47.378;8.300;2022-07-29T15:38:30;21.20;99.90
43987;DHT22;29650;47.378;8.300;2022-07-29T15:40:58;21.30;99.90
43987;DHT22;29650;47.378;8.300;2022-07-29T15:43:26;21.40;99.90
43987;DHT22;29650;47.378;8.300;2022-07-29T15:45:53;21.40;99.90
43987;DHT22;29650;47.378;8.300;2022-07-29T15:48:40;21.70;99.90